createdAt,value
2022-10-11T00:01:20.638Z,101269.28
2022-10-11T00:03:47.348Z,101274.72
2022-10-11T00:06:14.104Z,101275.75
2022-10-11T00:08:40.698Z,101279.00
2022-10-11T00:11:08.066Z,101280.63
2022-10-11T00:13:34.923Z,101276.28
2022-10-11T00:16:07.807Z,101281.19
2022-10-11T00:18:34.728Z,101288.81
2022-10-11T00:21:06.197Z,101279.59
2022-10-11T00:23:33.429Z,101285.31
2022-10-11T00:26:02.081Z,101278.00
2022-10-11T00:28:29.086Z,101285.88
2022-10-11T00:30:55.790Z,101281.00
2022-10-11T00:33:22.549Z,101285.31
2022-10-11T00:35:49.348Z,101288.31
2022-10-11T00:38:18.213Z,101289.38
2022-10-11T00:40:45.655Z,101295.09
2022-10-11T00:43:25.632Z,101289.94
2022-10-11T00:45:58.270Z,101282.34
2022-10-11T00:48:47.949Z,101284.78
2022-10-11T00:51:18.316Z,101281.81
2022-10-11T00:53:48.605Z,101287.78
2022-10-11T00:56:23.774Z,101282.91
2022-10-11T00:58:50.828Z,101286.69
2022-10-11T01:01:17.763Z,101284.59
2022-10-11T01:03:45.183Z,101288.63
2022-10-11T01:06:11.862Z,101290.25
2022-10-11T01:08:39.097Z,101291.88
2022-10-11T01:11:06.559Z,101294.34
2022-10-11T01:13:44.889Z,101295.41
2022-10-11T01:16:37.775Z,101291.63
2022-10-11T01:19:29.106Z,101291.63
2022-10-11T01:22:19.090Z,101299.22
2022-10-11T01:25:19.841Z,101297.88
2022-10-11T01:28:10.669Z,101300.06
2022-10-11T01:30:38.510Z,101301.97
2022-10-11T01:33:24.628Z,101305.22
2022-10-11T01:36:04.107Z,101302.78
2022-10-11T01:38:37.023Z,101301.72
2022-10-11T01:41:16.975Z,101304.19
2022-10-11T01:43:44.205Z,101305.53
2022-10-11T01:46:11.693Z,101305.78
2022-10-11T01:48:50.119Z,101307.09
2022-10-11T01:51:19.576Z,101317.13
2022-10-11T01:53:50.819Z,101323.59
2022-10-11T01:56:22.837Z,101325.22
2022-10-11T01:59:06.615Z,101316.59
2022-10-11T02:01:36.140Z,101327.94
2022-10-11T02:04:23.783Z,101332.53
2022-10-11T02:06:56.293Z,101334.44
2022-10-11T02:09:36.514Z,101341.22
2022-10-11T02:12:09.262Z,101339.31
2022-10-11T02:14:41.793Z,101342.81
2022-10-11T02:17:22.923Z,101350.13
2022-10-11T02:19:53.140Z,101341.50
2022-10-11T02:22:25.070Z,101347.97
2022-10-11T02:24:55.531Z,101355.00
2022-10-11T02:27:26.828Z,101350.41
2022-10-11T02:29:56.262Z,101352.84
2022-10-11T02:32:25.379Z,101355.25
2022-10-11T02:34:57.576Z,101346.34
2022-10-11T02:37:30.241Z,101349.59
2022-10-11T02:40:06.603Z,101348.00
2022-10-11T02:43:04.824Z,101343.38
2022-10-11T02:45:43.884Z,101352.31
2022-10-11T02:48:12.403Z,101355.00
2022-10-11T02:50:40.371Z,101362.84
2022-10-11T02:53:07.275Z,101359.31
2022-10-11T02:55:34.178Z,101349.63
2022-10-11T02:58:01.223Z,101353.94
2022-10-11T03:00:28.410Z,101358.25
2022-10-11T03:02:55.040Z,101361.19
2022-10-11T03:05:21.589Z,101357.69
2022-10-11T03:07:48.221Z,101370.91
2022-10-11T03:10:14.766Z,101369.56
2022-10-11T03:12:41.777Z,101371.19
2022-10-11T03:15:08.691Z,101372.56
2022-10-11T03:17:36.843Z,101367.91
2022-10-11T03:20:07.288Z,101374.66
2022-10-11T03:22:33.962Z,101375.19
2022-10-11T03:25:04.004Z,101376.25
2022-10-11T03:27:31.736Z,101378.09
2022-10-11T03:29:58.727Z,101378.06
2022-10-11T03:32:25.782Z,101382.38
2022-10-11T03:34:52.442Z,101379.13
2022-10-11T03:37:19.036Z,101381.56
2022-10-11T03:39:45.900Z,101382.38
2022-10-11T03:42:13.983Z,101376.41
2022-10-11T03:44:42.186Z,101375.56
2022-10-11T03:47:09.045Z,101382.31
2022-10-11T03:49:38.791Z,101382.31
2022-10-11T03:52:07.846Z,101392.56
2022-10-11T03:54:34.386Z,101389.09
2022-10-11T03:57:01.183Z,101394.78
2022-10-11T03:59:27.714Z,101395.31
2022-10-11T04:01:54.377Z,101392.88
2022-10-11T04:04:20.994Z,101393.38
2022-10-11T04:06:47.620Z,101399.25
2022-10-11T04:09:14.193Z,101401.09
2022-10-11T04:11:40.703Z,101407.50
2022-10-11T04:14:07.310Z,101407.44
2022-10-11T04:16:35.159Z,101413.09
2022-10-11T04:19:01.694Z,101419.28
2022-10-11T04:21:28.254Z,101416.00
2022-10-11T04:23:54.983Z,101415.59
2022-10-11T04:26:21.511Z,101422.31
2022-10-11T04:28:48.137Z,101422.00
2022-10-11T04:31:14.871Z,101430.91
2022-10-11T04:33:41.396Z,101428.66
2022-10-11T04:36:08.636Z,101429.72
2022-10-11T04:38:35.438Z,101431.84
2022-10-11T04:41:29.312Z,101440.69
2022-10-11T04:43:56.109Z,101447.38
2022-10-11T04:46:23.411Z,101451.06
2022-10-11T04:48:50.164Z,101454.25
2022-10-11T04:51:17.485Z,101456.84
2022-10-11T04:53:44.297Z,101465.38
2022-10-11T04:56:11.505Z,101466.91
2022-10-11T04:58:42.271Z,101479.78
2022-10-11T05:01:09.730Z,101474.94
2022-10-11T05:03:36.778Z,101470.34
2022-10-11T05:06:06.100Z,101471.16
2022-10-11T05:08:33.718Z,101477.06
2022-10-11T05:11:02.587Z,101481.94
2022-10-11T05:13:30.500Z,101478.31
2022-10-11T05:15:58.188Z,101489.09
2022-10-11T05:18:25.185Z,101486.44
2022-10-11T05:21:19.704Z,101495.06
2022-10-11T05:23:47.965Z,101495.06
2022-10-11T05:26:15.743Z,101497.31
2022-10-11T05:28:43.003Z,101495.69
2022-10-11T05:31:10.240Z,101501.06
2022-10-11T05:33:36.991Z,101509.03
2022-10-11T05:36:04.600Z,101517.31
2022-10-11T05:38:31.564Z,101516.19
2022-10-11T05:41:02.953Z,101513.25
2022-10-11T05:43:30.411Z,101518.00
2022-10-11T05:45:57.255Z,101526.44
2022-10-11T05:48:26.813Z,101526.84
2022-10-11T05:51:02.974Z,101522.38
2022-10-11T05:53:29.955Z,101535.22
2022-10-11T05:55:56.797Z,101531.53
2022-10-11T05:58:23.407Z,101538.63
2022-10-11T06:00:50.116Z,101539.63
2022-10-11T06:03:17.575Z,101546.06
2022-10-11T06:05:44.180Z,101545.97
2022-10-11T06:08:11.133Z,101555.44
2022-10-11T06:10:38.549Z,101552.81
2022-10-11T06:13:06.173Z,101563.91
2022-10-11T06:15:33.328Z,101563.25
2022-10-11T06:18:00.049Z,101569.19
2022-10-11T06:20:27.154Z,101576.00
2022-10-11T06:22:53.910Z,101573.03
2022-10-11T06:25:20.493Z,101570.22
2022-10-11T06:27:47.068Z,101564.38
2022-10-11T06:30:14.399Z,101560.56
2022-10-11T06:32:40.981Z,101564.41
2022-10-11T06:35:08.209Z,101568.53
2022-10-11T06:37:34.799Z,101576.72
2022-10-11T06:40:02.081Z,101572.03
2022-10-11T06:42:28.623Z,101576.13
2022-10-11T06:44:55.118Z,101579.44
2022-10-11T06:47:21.714Z,101575.63
2022-10-11T06:49:48.259Z,101585.19
2022-10-11T06:52:14.938Z,101596.44
2022-10-11T06:54:44.927Z,101593.31
2022-10-11T06:57:12.585Z,101599.41
2022-10-11T06:59:39.230Z,101605.91
2022-10-11T07:02:06.771Z,101607.28
2022-10-11T07:04:33.965Z,101607.09
2022-10-11T07:07:01.155Z,101608.22
2022-10-11T07:09:27.837Z,101610.94
2022-10-11T07:11:54.399Z,101618.88
2022-10-11T07:14:20.939Z,101617.28
2022-10-11T07:16:47.660Z,101615.44
2022-10-11T07:19:14.301Z,101619.84
2022-10-11T07:21:40.823Z,101620.50
2022-10-11T07:24:07.592Z,101622.72
2022-10-11T07:26:38.792Z,101626.28
2022-10-11T07:29:08.055Z,101634.22
2022-10-11T07:31:37.367Z,101635.94
2022-10-11T07:34:04.071Z,101631.97
2022-10-11T07:36:30.724Z,101642.47
2022-10-11T07:38:57.301Z,101644.69
2022-10-11T07:41:23.986Z,101636.03
2022-10-11T07:43:50.979Z,101644.69
2022-10-11T07:46:18.309Z,101645.56
2022-10-11T07:48:44.993Z,101642.38
2022-10-11T07:51:12.985Z,101639.47
2022-10-11T07:53:45.352Z,101643.81
2022-10-11T07:56:14.196Z,101647.09
2022-10-11T07:58:42.002Z,101646.03
2022-10-11T08:01:10.451Z,101643.91
2022-10-11T08:03:38.100Z,101643.34
2022-10-11T08:06:07.787Z,101658.91
2022-10-11T08:08:35.128Z,101649.16
2022-10-11T08:11:02.192Z,101655.94
2022-10-11T08:13:28.864Z,101662.66
2022-10-11T08:15:55.544Z,101660.84
2022-10-11T08:18:22.442Z,101660.59
2022-10-11T08:20:49.156Z,101666.59
2022-10-11T08:23:16.859Z,101661.91
2022-10-11T08:25:46.092Z,101665.22
2022-10-11T08:28:17.150Z,101665.22
2022-10-11T08:30:48.737Z,101674.81
2022-10-11T08:33:16.794Z,101677.28
2022-10-11T08:35:43.773Z,101679.44
2022-10-11T08:38:10.719Z,101672.41
2022-10-11T08:40:37.890Z,101665.44
2022-10-11T08:43:08.455Z,101664.09
2022-10-11T08:45:50.253Z,101664.94
2022-10-11T08:48:34.245Z,101668.97
2022-10-11T08:51:02.690Z,101675.72
2022-10-11T08:53:46.386Z,101679.53
2022-10-11T08:56:14.710Z,101675.28
2022-10-11T08:58:50.754Z,101678.03
2022-10-11T09:01:28.137Z,101676.44
2022-10-11T09:03:55.318Z,101685.97
2022-10-11T09:06:43.531Z,101676.22
2022-10-11T09:09:23.391Z,101674.03
2022-10-11T09:12:02.139Z,101679.94
2022-10-11T09:15:10.354Z,101682.34
2022-10-11T09:18:04.579Z,101675.91
2022-10-11T09:20:45.988Z,101666.19
2022-10-11T09:23:31.196Z,101674.56
2022-10-11T09:26:25.595Z,101674.56
2022-10-11T09:29:21.697Z,101669.72
2022-10-11T09:31:57.048Z,101673.50
2022-10-11T09:34:32.399Z,101665.63
2022-10-11T09:37:42.076Z,101653.81
2022-10-11T09:40:20.759Z,101661.09
2022-10-11T09:42:47.316Z,101657.97
2022-10-11T09:45:20.167Z,101654.88
2022-10-11T09:47:48.175Z,101653.13
2022-10-11T09:50:25.731Z,101654.34
2022-10-11T09:52:57.402Z,101658.72
2022-10-11T09:55:41.050Z,101637.44
2022-10-11T09:58:31.059Z,101635.84
2022-10-11T10:01:07.956Z,101638.09
2022-10-11T10:03:39.820Z,101634.09
2022-10-11T10:06:08.551Z,101638.81
2022-10-11T10:08:36.005Z,101629.97
2022-10-11T10:11:06.743Z,101627.53
2022-10-11T10:13:51.331Z,101622.63
2022-10-11T10:16:28.430Z,101614.50
2022-10-11T10:18:59.126Z,101618.59
2022-10-11T10:21:32.559Z,101618.94
2022-10-11T10:24:03.270Z,101617.59
2022-10-11T10:26:31.137Z,101616.69
2022-10-11T10:29:08.901Z,101623.59
2022-10-11T10:32:01.865Z,101627.03
2022-10-11T10:34:39.773Z,101625.47
2022-10-11T10:37:14.053Z,101637.44
2022-10-11T10:39:47.067Z,101624.69
2022-10-11T10:42:18.832Z,101629.19
2022-10-11T10:44:52.428Z,101623.16
2022-10-11T10:47:50.515Z,101624.03
2022-10-11T10:50:31.196Z,101624.91
2022-10-11T10:53:31.578Z,101629.72
2022-10-11T10:56:10.276Z,101623.53
2022-10-11T10:58:49.033Z,101621.25
2022-10-11T11:01:29.065Z,101615.22
2022-10-11T11:04:13.949Z,101616.28
2022-10-11T11:07:15.129Z,101606.66
2022-10-11T11:10:13.180Z,101608.91
2022-10-11T11:13:02.353Z,101586.06
2022-10-11T11:15:38.678Z,101592.34
2022-10-11T11:18:27.128Z,101586.34
2022-10-11T11:21:18.771Z,101568.97
2022-10-11T11:23:45.340Z,101576.84
2022-10-11T11:26:27.510Z,101575.81
2022-10-11T11:28:57.100Z,101577.00
2022-10-11T11:32:01.937Z,101561.84
2022-10-11T11:34:37.889Z,101565.41
2022-10-11T11:37:11.729Z,101563.53
2022-10-11T11:39:48.316Z,101559.38
2022-10-11T11:42:39.329Z,101554.13
2022-10-11T11:45:14.934Z,101556.66
2022-10-11T11:47:47.159Z,101550.81
2022-10-11T11:50:22.608Z,101552.00
2022-10-11T11:52:58.379Z,101548.63
2022-10-11T11:55:37.375Z,101542.53
2022-10-11T11:58:37.424Z,101541.31
2022-10-11T12:01:18.012Z,101538.63
2022-10-11T12:03:52.528Z,101543.38
2022-10-11T12:06:27.854Z,101534.69
2022-10-11T12:09:02.008Z,101533.91
2022-10-11T12:11:40.271Z,101526.75
2022-10-11T12:14:28.123Z,101536.44
2022-10-11T12:17:09.307Z,101527.31
2022-10-11T12:19:37.686Z,101521.97
2022-10-11T12:22:17.932Z,101520.72
2022-10-11T12:25:20.986Z,101519.75
2022-10-11T12:27:48.766Z,101524.34
2022-10-11T12:30:53.308Z,101530.06
2022-10-11T12:33:51.326Z,101525.09
2022-10-11T12:36:56.725Z,101527.09
2022-10-11T12:39:23.552Z,101520.91
2022-10-11T12:41:55.755Z,101521.28
2022-10-11T12:44:23.849Z,101517.47
2022-10-11T12:46:50.346Z,101520.69
2022-10-11T12:49:52.891Z,101513.38
2022-10-11T12:52:47.520Z,101513.53
2022-10-11T12:55:35.041Z,101510.16
2022-10-11T12:58:13.963Z,101504.88
2022-10-11T13:00:41.281Z,101500.81
2022-10-11T13:03:32.809Z,101501.75
2022-10-11T13:06:04.690Z,101508.13
2022-10-11T13:08:34.946Z,101513.78
2022-10-11T13:11:06.392Z,101514.91
2022-10-11T13:13:43.913Z,101508.75
2022-10-11T13:16:21.221Z,101512.19
2022-10-11T13:18:50.925Z,101509.66
2022-10-11T13:21:32.171Z,101516.84
2022-10-11T13:24:02.286Z,101519.47
2022-10-11T13:26:31.293Z,101509.38
2022-10-11T13:29:00.169Z,101510.78
2022-10-11T13:31:27.438Z,101505.34
2022-10-11T13:33:56.628Z,101498.88
2022-10-11T13:36:26.858Z,101497.75
2022-10-11T13:38:57.320Z,101491.59
2022-10-11T13:41:27.682Z,101493.19
2022-10-11T13:43:56.665Z,101492.56
2022-10-11T13:46:26.145Z,101501.84
2022-10-11T13:49:05.645Z,101498.38
2022-10-11T13:51:37.037Z,101494.41
2022-10-11T13:54:13.099Z,101492.44
2022-10-11T13:56:51.580Z,101483.28
2022-10-11T13:59:23.889Z,101482.44
2022-10-11T14:01:57.855Z,101480.41
2022-10-11T14:04:29.537Z,101475.56
2022-10-11T14:07:00.584Z,101481.97
2022-10-11T14:09:31.923Z,101481.97
2022-10-11T14:12:39.644Z,101480.16
2022-10-11T14:15:31.326Z,101490.59
2022-10-11T14:17:59.159Z,101486.91
2022-10-11T14:20:38.226Z,101482.06
2022-10-11T14:23:05.547Z,101488.09
2022-10-11T14:25:32.673Z,101480.44
2022-10-11T14:27:59.802Z,101484.28
2022-10-11T14:30:28.026Z,101474.25
2022-10-11T14:32:57.854Z,101483.84
2022-10-11T14:35:30.776Z,101474.34
2022-10-11T14:37:57.282Z,101480.03
2022-10-11T14:40:27.423Z,101480.22
2022-10-11T14:42:54.205Z,101481.72
2022-10-11T14:45:23.930Z,101480.41
2022-10-11T14:47:51.864Z,101481.19
2022-10-11T14:50:39.332Z,101479.00
2022-10-11T14:53:07.577Z,101489.13
2022-10-11T14:55:36.734Z,101481.56
2022-10-11T14:58:05.676Z,101478.53
2022-10-11T15:00:33.098Z,101479.66
2022-10-11T15:02:59.706Z,101477.09
2022-10-11T15:05:33.708Z,101477.81
2022-10-11T15:08:02.083Z,101474.72
2022-10-11T15:10:35.034Z,101474.84
2022-10-11T15:13:02.489Z,101480.16
2022-10-11T15:15:32.798Z,101480.09
2022-10-11T15:18:01.812Z,101477.03
2022-10-11T15:20:31.440Z,101474.72
2022-10-11T15:22:59.024Z,101474.81
2022-10-11T15:25:26.284Z,101480.13
2022-10-11T15:27:53.544Z,101478.56
2022-10-11T15:30:41.864Z,101477.22
2022-10-11T15:33:08.892Z,101474.81
2022-10-11T15:35:35.708Z,101479.44
2022-10-11T15:38:02.434Z,101473.22
2022-10-11T15:40:35.392Z,101471.59
2022-10-11T15:43:03.041Z,101476.25
2022-10-11T15:45:30.215Z,101477.91
2022-10-11T15:47:57.135Z,101472.78
2022-10-11T15:50:39.319Z,101479.59
2022-10-11T15:53:12.597Z,101487.25
2022-10-11T15:55:44.769Z,101488.66
2022-10-11T15:58:21.981Z,101482.22
2022-10-11T16:00:50.154Z,101481.19
2022-10-11T16:03:17.820Z,101475.81
2022-10-11T16:05:44.647Z,101483.47
2022-10-11T16:08:11.481Z,101486.75
2022-10-11T16:10:39.015Z,101482.44
2022-10-11T16:13:06.153Z,101486.00
2022-10-11T16:15:33.533Z,101481.97
2022-10-11T16:18:00.284Z,101479.28
2022-10-11T16:20:27.049Z,101481.75
2022-10-11T16:22:54.871Z,101487.47
2022-10-11T16:25:22.479Z,101483.69
2022-10-11T16:27:50.230Z,101482.88
2022-10-11T16:30:17.859Z,101488.03
2022-10-11T16:32:45.176Z,101487.50
2022-10-11T16:35:16.019Z,101484.22
2022-10-11T16:37:43.214Z,101489.66
2022-10-11T16:40:11.709Z,101496.16
2022-10-11T16:42:39.395Z,101489.41
2022-10-11T16:45:06.795Z,101496.69
2022-10-11T16:47:34.021Z,101494.53
2022-10-11T16:50:00.937Z,101496.13
2022-10-11T16:52:27.574Z,101493.16
2022-10-11T16:54:54.311Z,101497.25
2022-10-11T16:57:21.007Z,101494.00
2022-10-11T16:59:47.659Z,101493.47
2022-10-11T17:02:17.796Z,101494.56
2022-10-11T17:04:45.091Z,101493.22
2022-10-11T17:07:13.036Z,101497.28
2022-10-11T17:09:43.980Z,101498.88
2022-10-11T17:12:13.658Z,101489.66
2022-10-11T17:14:41.105Z,101496.72
2022-10-11T17:17:09.316Z,101491.81
2022-10-11T17:19:44.851Z,101495.63
2022-10-11T17:22:14.011Z,101493.19
2022-10-11T17:24:40.949Z,101496.16
2022-10-11T17:27:08.419Z,101490.19
2022-10-11T17:29:38.441Z,101499.91
2022-10-11T17:32:05.845Z,101496.69
2022-10-11T17:34:33.187Z,101502.34
2022-10-11T17:36:59.855Z,101490.69
2022-10-11T17:39:26.558Z,101489.06
2022-10-11T17:41:53.167Z,101497.38
2022-10-11T17:44:20.161Z,101494.94
2022-10-11T17:46:47.439Z,101496.59
2022-10-11T17:49:14.191Z,101492.28
2022-10-11T17:51:41.475Z,101498.22
2022-10-11T17:54:12.787Z,101497.16
2022-10-11T17:56:41.752Z,101503.94
2022-10-11T17:59:14.560Z,101503.66
2022-10-11T18:01:41.558Z,101502.06
2022-10-11T18:04:13.398Z,101511.78
2022-10-11T18:06:40.077Z,101504.19
2022-10-11T18:09:07.186Z,101506.38
2022-10-11T18:11:34.126Z,101509.88
2022-10-11T18:14:01.012Z,101498.78
2022-10-11T18:16:30.114Z,101500.13
2022-10-11T18:18:57.526Z,101500.97
2022-10-11T18:21:29.857Z,101510.13
2022-10-11T18:24:02.521Z,101511.78
2022-10-11T18:26:30.762Z,101504.72
2022-10-11T18:28:58.138Z,101511.75
2022-10-11T18:31:27.633Z,101505.50
2022-10-11T18:33:55.101Z,101512.50
2022-10-11T18:36:25.737Z,101499.53
2022-10-11T18:38:57.121Z,101501.09
2022-10-11T18:41:30.405Z,101501.88
2022-10-11T18:43:59.482Z,101500.22
2022-10-11T18:46:26.462Z,101509.44
2022-10-11T18:48:54.925Z,101509.44
2022-10-11T18:51:26.965Z,101512.66
2022-10-11T18:53:54.856Z,101514.81
2022-10-11T18:56:24.580Z,101519.69
2022-10-11T18:58:52.188Z,101516.13
2022-10-11T19:01:22.054Z,101521.72
2022-10-11T19:03:52.562Z,101520.66
2022-10-11T19:06:22.275Z,101515.75
2022-10-11T19:09:09.388Z,101517.34
2022-10-11T19:11:36.841Z,101512.41
2022-10-11T19:14:07.198Z,101508.63
2022-10-11T19:16:38.037Z,101510.75
2022-10-11T19:19:05.358Z,101509.16
2022-10-11T19:21:32.132Z,101509.47
2022-10-11T19:23:59.102Z,101515.44
2022-10-11T19:26:33.910Z,101513.06
2022-10-11T19:29:04.241Z,101508.50
2022-10-11T19:31:32.568Z,101508.81
2022-10-11T19:33:59.814Z,101509.38
2022-10-11T19:36:33.985Z,101507.22
2022-10-11T19:39:04.653Z,101507.81
2022-10-11T19:41:32.556Z,101509.97
2022-10-11T19:43:59.990Z,101508.94
2022-10-11T19:49:17.694Z,101511.16
2022-10-11T19:51:44.893Z,101505.41
2022-10-11T19:54:13.789Z,101503.53
2022-10-11T19:56:40.916Z,101500.78
2022-10-11T19:59:07.868Z,101505.63
2022-10-11T20:01:36.251Z,101502.94
2022-10-11T20:04:09.105Z,101504.03
2022-10-11T20:06:38.991Z,101506.72
2022-10-11T20:09:28.384Z,101515.31
2022-10-11T20:11:54.801Z,101511.00
2022-10-11T20:14:21.814Z,101520.16
2022-10-11T20:16:50.335Z,101514.78
2022-10-11T20:19:17.516Z,101510.72
2022-10-11T20:21:45.023Z,101520.91
2022-10-11T20:24:12.160Z,101521.69
2022-10-11T20:26:39.346Z,101522.19
2022-10-11T20:29:06.394Z,101525.38
2022-10-11T20:31:34.641Z,101523.19
2022-10-11T20:34:04.086Z,101521.00
2022-10-11T20:36:32.197Z,101510.19
2022-10-11T20:38:59.532Z,101512.84
2022-10-11T20:41:28.940Z,101516.56
2022-10-11T20:43:57.706Z,101521.94
2022-10-11T20:46:27.918Z,101519.19
2022-10-11T20:49:01.355Z,101522.66
2022-10-11T20:51:30.702Z,101525.88
2022-10-11T20:53:58.725Z,101521.75
2022-10-11T20:56:25.713Z,101525.41
2022-10-11T20:58:56.963Z,101522.06
2022-10-11T21:01:32.182Z,101528.41
2022-10-11T21:04:00.877Z,101530.19
2022-10-11T21:06:28.885Z,101528.25
2022-10-11T21:08:56.478Z,101532.03
2022-10-11T21:11:31.268Z,101529.88
2022-10-11T21:13:59.456Z,101535.56
2022-10-11T21:16:27.371Z,101527.56
2022-10-11T21:18:56.524Z,101531.41
2022-10-11T21:21:26.549Z,101525.31
2022-10-11T21:23:55.594Z,101523.97
2022-10-11T21:26:22.341Z,101527.94
2022-10-11T21:28:49.244Z,101523.06
2022-10-11T21:31:17.944Z,101517.13
2022-10-11T21:33:45.105Z,101514.13
2022-10-11T21:36:20.680Z,101518.91
2022-10-11T21:38:48.333Z,101511.59
2022-10-11T21:41:20.628Z,101511.59
2022-10-11T21:43:48.049Z,101513.72
2022-10-11T21:46:47.642Z,101512.53
2022-10-11T21:49:13.896Z,101515.75
2022-10-11T21:51:40.493Z,101513.84
2022-10-11T21:54:07.240Z,101514.91
2022-10-11T21:56:34.056Z,101515.41
2022-10-11T21:59:00.796Z,101513.50
2022-10-11T22:01:27.789Z,101506.97
2022-10-11T22:03:55.115Z,101505.34
2022-10-11T22:06:21.884Z,101505.84
2022-10-11T22:08:49.949Z,101504.31
2022-10-11T22:11:16.829Z,101500.19
2022-10-11T22:13:43.526Z,101498.66
2022-10-11T22:16:12.330Z,101502.72
2022-10-11T22:18:39.440Z,101496.00
2022-10-11T22:21:13.463Z,101498.47
2022-10-11T22:23:41.576Z,101490.09
2022-10-11T22:26:14.810Z,101494.66
2022-10-11T22:28:41.978Z,101491.63
2022-10-11T22:31:10.099Z,101491.16
2022-10-11T22:33:37.142Z,101486.84
2022-10-11T22:36:08.532Z,101490.06
2022-10-11T22:38:36.589Z,101482.50
2022-10-11T22:41:03.472Z,101483.88
2022-10-11T22:43:30.159Z,101487.38
2022-10-11T22:45:56.779Z,101484.13
2022-10-11T22:48:23.518Z,101479.81
2022-10-11T22:50:50.174Z,101480.31
2022-10-11T22:53:17.494Z,101482.56
2022-10-11T22:55:44.205Z,101475.56
2022-10-11T22:58:10.927Z,101484.53
2022-10-11T23:00:37.816Z,101484.56
2022-10-11T23:03:07.006Z,101479.75
2022-10-11T23:05:36.775Z,101477.25
2022-10-11T23:08:03.476Z,101479.03
2022-10-11T23:10:30.172Z,101477.91
2022-10-11T23:12:56.773Z,101479.59
2022-10-11T23:15:23.492Z,101475.38
2022-10-11T23:17:50.121Z,101477.56
2022-10-11T23:20:16.771Z,101476.72
2022-10-11T23:22:43.433Z,101473.69
2022-10-11T23:25:10.153Z,101470.88
2022-10-11T23:27:37.102Z,101476.97
2022-10-11T23:30:05.160Z,101476.09
2022-10-11T23:32:32.480Z,101474.53
2022-10-11T23:34:59.155Z,101463.31
2022-10-11T23:37:25.860Z,101464.44
2022-10-11T23:39:52.394Z,101473.00
2022-10-11T23:42:18.983Z,101461.09
2022-10-11T23:44:45.761Z,101464.88
2022-10-11T23:47:12.532Z,101464.00
2022-10-11T23:49:39.076Z,101460.53
2022-10-11T23:52:05.655Z,101467.06
2022-10-11T23:54:32.288Z,101467.56
2022-10-11T23:56:58.884Z,101466.41
2022-10-11T23:59:25.425Z,101461.94
